Terminal Aerodrome Forecast
Issued by NWS

Home | Current Version | Previous Version | Text Only | Print | Product List | Glossary On
Versions: 1 2 3 4 5 6 7 8 9 10 11 12 13 14
000
FTUS43 KICT 162300
TAFRSL
TAF
KRSL 162325Z 1700/1724 35014G20KT P6SM BKN200
     FM170300 02011KT P6SM BKN150
     FM171000 05009KT P6SM OVC100
     FM172200 11008KT P6SM SCT120=

USA.gov is the U.S. government's official web portal to all federal, state and local government web resources and services.